createdAt,value
2018-12-09T00:00:26.819Z,1.00
2018-12-09T00:02:57.430Z,1.10
2018-12-09T00:05:25.851Z,1.27
2018-12-09T00:07:53.598Z,1.35
2018-12-09T00:10:21.423Z,1.15
2018-12-09T00:12:53.803Z,1.07
2018-12-09T00:15:21.631Z,1.25
2018-12-09T00:17:49.468Z,1.02
2018-12-09T00:20:17.223Z,1.00
2018-12-09T00:22:44.983Z,1.00
2018-12-09T00:25:13.512Z,1.30
2018-12-09T00:27:41.271Z,1.12
2018-12-09T00:30:09.275Z,1.00
2018-12-09T00:32:36.996Z,1.35
2018-12-09T00:35:05.001Z,1.27
2018-12-09T00:37:33.203Z,1.60
2018-12-09T00:40:00.966Z,1.17
2018-12-09T00:42:28.698Z,1.47
2018-12-09T00:44:56.517Z,1.70
2018-12-09T00:47:24.242Z,2.15
2018-12-09T00:49:52.006Z,1.10
2018-12-09T00:52:19.860Z,1.35
2018-12-09T00:54:47.665Z,1.32
2018-12-09T00:57:15.480Z,1.45
2018-12-09T00:59:43.206Z,1.37
2018-12-09T01:02:11.023Z,1.70
2018-12-09T01:04:38.858Z,1.57
2018-12-09T01:07:06.943Z,1.40
2018-12-09T01:09:34.842Z,1.42
2018-12-09T01:12:02.564Z,2.22
2018-12-09T01:14:30.512Z,1.35
2018-12-09T01:16:58.879Z,1.35
2018-12-09T01:19:27.003Z,2.12
2018-12-09T01:21:54.859Z,1.35
2018-12-09T01:24:23.299Z,1.62
2018-12-09T01:26:51.031Z,1.60
2018-12-09T01:29:19.688Z,1.60
2018-12-09T01:31:48.300Z,1.77
2018-12-09T01:34:16.462Z,2.30
2018-12-09T01:36:45.260Z,2.22
2018-12-09T01:39:13.039Z,1.98
2018-12-09T01:41:40.982Z,2.00
2018-12-09T01:44:08.721Z,1.52
2018-12-09T01:46:36.619Z,1.22
2018-12-09T01:49:04.442Z,1.62
2018-12-09T01:51:32.336Z,1.50
2018-12-09T01:54:07.901Z,1.80
2018-12-09T01:56:35.813Z,1.57
2018-12-09T01:59:03.722Z,1.40
2018-12-09T02:01:31.461Z,2.15
2018-12-09T02:03:59.310Z,1.50
2018-12-09T02:06:27.273Z,1.45
2018-12-09T02:08:55.090Z,2.95
2018-12-09T02:11:23.008Z,1.35
2018-12-09T02:13:50.743Z,1.85
2018-12-09T02:16:18.647Z,2.70
2018-12-09T02:18:48.627Z,1.70
2018-12-09T02:21:16.431Z,2.62
2018-12-09T02:23:44.320Z,2.22
2018-12-09T02:26:12.473Z,1.55
2018-12-09T02:28:40.296Z,1.80
2018-12-09T02:31:08.135Z,2.02
2018-12-09T02:33:36.660Z,1.72
2018-12-09T02:36:04.475Z,2.17
2018-12-09T02:38:32.332Z,2.00
2018-12-09T02:41:00.664Z,2.12
2018-12-09T02:43:28.538Z,2.02
2018-12-09T02:45:56.336Z,1.65
2018-12-09T02:48:24.179Z,1.95
2018-12-09T02:50:52.051Z,2.10
2018-12-09T02:53:19.883Z,2.45
2018-12-09T02:55:47.890Z,2.10
2018-12-09T02:58:15.765Z,2.58
2018-12-09T03:00:44.997Z,3.12
2018-12-09T03:03:12.780Z,2.30
2018-12-09T03:05:40.697Z,2.33
2018-12-09T03:08:08.519Z,2.33
2018-12-09T03:10:36.287Z,2.17
2018-12-09T03:13:04.695Z,1.70
2018-12-09T03:15:33.048Z,1.87
2018-12-09T03:18:01.137Z,1.95
2018-12-09T03:20:28.991Z,1.70
2018-12-09T03:22:56.946Z,1.90
2018-12-09T03:25:24.734Z,2.35
2018-12-09T03:27:52.645Z,1.80
2018-12-09T03:30:20.418Z,2.27
2018-12-09T03:32:49.116Z,1.70
2018-12-09T03:35:17.647Z,2.12
2018-12-09T03:37:45.453Z,1.55
2018-12-09T03:40:13.297Z,2.10
2018-12-09T03:42:41.056Z,1.75
2018-12-09T03:45:09.003Z,1.70
2018-12-09T03:47:36.820Z,1.72
2018-12-09T03:50:06.485Z,2.25
2018-12-09T03:52:34.361Z,1.75
2018-12-09T03:55:02.147Z,2.40
2018-12-09T03:57:30.027Z,1.87
2018-12-09T03:59:57.888Z,1.98
2018-12-09T04:02:25.813Z,2.30
2018-12-09T04:04:54.122Z,4.62
2018-12-09T04:07:22.047Z,2.70
2018-12-09T04:09:49.857Z,2.80
2018-12-09T04:12:17.594Z,2.55
2018-12-09T04:14:45.710Z,3.00
2018-12-09T04:17:13.498Z,2.60
2018-12-09T04:19:41.394Z,2.45
2018-12-09T04:22:09.768Z,2.30
2018-12-09T04:24:37.584Z,2.90
2018-12-09T04:27:05.739Z,3.90
2018-12-09T04:29:33.512Z,3.58
2018-12-09T04:32:01.306Z,3.02
2018-12-09T04:34:29.051Z,3.60
2018-12-09T04:36:56.756Z,2.65
2018-12-09T04:39:25.848Z,3.47
2018-12-09T04:41:53.572Z,2.85
2018-12-09T04:44:21.426Z,4.25
2018-12-09T04:46:49.201Z,4.15
2018-12-09T04:49:17.055Z,5.20
2018-12-09T04:51:52.375Z,5.83
2018-12-09T04:54:21.139Z,3.95
2018-12-09T04:56:49.110Z,3.77
2018-12-09T04:59:19.215Z,4.30
2018-12-09T05:01:47.526Z,3.90
2018-12-09T05:04:15.419Z,4.67
2018-12-09T05:06:43.614Z,3.80
2018-12-09T05:09:11.458Z,4.17
2018-12-09T05:11:39.210Z,4.12
2018-12-09T05:14:10.137Z,3.87
2018-12-09T05:16:37.971Z,4.40
2018-12-09T05:19:05.860Z,4.95
2018-12-09T05:21:33.665Z,3.65
2018-12-09T05:24:01.490Z,5.10
2018-12-09T05:26:30.237Z,3.35
2018-12-09T05:28:58.113Z,3.47
2018-12-09T05:31:25.957Z,3.27
2018-12-09T05:33:54.583Z,4.10
2018-12-09T05:36:22.438Z,4.30
2018-12-09T05:38:50.172Z,3.20
2018-12-09T05:41:19.046Z,4.62
2018-12-09T05:43:46.781Z,4.60
2018-12-09T05:46:14.634Z,3.62
2018-12-09T05:48:43.210Z,4.37
2018-12-09T05:51:18.967Z,3.47
2018-12-09T05:53:46.855Z,3.52
2018-12-09T05:56:14.723Z,3.40
2018-12-09T05:58:43.740Z,3.25
2018-12-09T06:01:11.552Z,3.50
2018-12-09T06:03:39.366Z,3.30
2018-12-09T06:06:08.173Z,3.35
2018-12-09T06:08:36.994Z,2.40
2018-12-09T06:11:05.658Z,3.42
2018-12-09T06:13:34.415Z,3.62
2018-12-09T06:16:02.322Z,3.80
2018-12-09T06:18:30.208Z,2.90
2018-12-09T06:20:57.950Z,2.72
2018-12-09T06:23:26.327Z,2.08
2018-12-09T06:25:54.093Z,1.55
2018-12-09T06:28:21.877Z,2.58
2018-12-09T06:30:49.683Z,1.52
2018-12-09T06:33:17.413Z,1.47
2018-12-09T06:35:45.266Z,1.32
2018-12-09T06:38:13.036Z,1.67
2018-12-09T06:40:40.859Z,1.55
2018-12-09T06:43:08.639Z,1.40
2018-12-09T06:45:37.216Z,1.20
2018-12-09T06:48:05.031Z,1.27
2018-12-09T06:50:32.893Z,1.87
2018-12-09T06:53:01.538Z,1.20
2018-12-09T06:55:29.219Z,1.50
2018-12-09T06:57:57.903Z,1.57
2018-12-09T07:00:25.677Z,1.27
2018-12-09T07:02:53.427Z,1.52
2018-12-09T07:05:22.081Z,1.80
2018-12-09T07:07:50.861Z,1.87
2018-12-09T07:10:18.621Z,1.20
2018-12-09T07:12:46.424Z,1.55
2018-12-09T07:15:14.540Z,2.33
2018-12-09T07:17:42.296Z,2.17
2018-12-09T07:20:10.059Z,1.72
2018-12-09T07:22:38.463Z,2.50
2018-12-09T07:25:06.363Z,1.27
2018-12-09T07:27:34.435Z,2.05
2018-12-09T07:30:03.084Z,2.40
2018-12-09T07:32:31.614Z,2.42
2018-12-09T07:34:59.538Z,1.77
2018-12-09T07:37:27.287Z,2.30
2018-12-09T07:39:55.438Z,2.40
2018-12-09T07:42:23.231Z,3.83
2018-12-09T07:44:51.063Z,3.35
2018-12-09T07:47:18.877Z,2.70
2018-12-09T07:49:46.791Z,2.70
2018-12-09T07:52:14.604Z,2.83
2018-12-09T07:54:42.507Z,2.33
2018-12-09T07:57:12.312Z,2.92
2018-12-09T07:59:40.908Z,2.05
2018-12-09T08:02:08.806Z,2.00
2018-12-09T08:04:36.604Z,2.67
2018-12-09T08:07:04.499Z,2.67
2018-12-09T08:09:32.237Z,2.60
2018-12-09T08:12:00.084Z,2.72
2018-12-09T08:14:28.453Z,2.52
2018-12-09T08:16:57.196Z,2.70
2018-12-09T08:19:24.966Z,2.10
2018-12-09T08:21:52.767Z,2.52
2018-12-09T08:24:20.587Z,2.30
2018-12-09T08:26:48.330Z,2.52
2018-12-09T08:29:16.262Z,2.60
2018-12-09T08:31:44.005Z,2.45
2018-12-09T08:34:12.492Z,3.58
2018-12-09T08:36:40.281Z,2.83
2018-12-09T08:39:08.144Z,2.22
2018-12-09T08:41:35.877Z,3.72
2018-12-09T08:44:03.776Z,3.70
2018-12-09T08:46:31.578Z,3.27
2018-12-09T08:48:59.449Z,3.15
2018-12-09T08:51:27.301Z,3.47
2018-12-09T08:53:55.102Z,3.60
2018-12-09T08:56:23.050Z,4.17
2018-12-09T08:58:50.866Z,2.98
2018-12-09T09:01:18.707Z,3.50
2018-12-09T09:03:47.277Z,3.65
2018-12-09T09:06:15.951Z,4.10
2018-12-09T09:08:44.248Z,3.20
2018-12-09T09:11:12.049Z,3.87
2018-12-09T09:13:39.857Z,3.85
2018-12-09T09:16:07.619Z,3.45
2018-12-09T09:18:35.442Z,3.80
2018-12-09T09:21:03.191Z,3.80
2018-12-09T09:23:31.940Z,3.42
2018-12-09T09:25:59.685Z,4.92
2018-12-09T09:28:27.422Z,4.45
2018-12-09T09:30:55.224Z,4.55
2018-12-09T09:33:22.939Z,3.65
2018-12-09T09:35:50.707Z,3.90
2018-12-09T09:38:18.521Z,4.47
2018-12-09T09:40:46.270Z,4.28
2018-12-09T09:43:14.142Z,4.85
2018-12-09T09:45:42.081Z,4.95
2018-12-09T09:48:09.978Z,4.67
2018-12-09T09:50:37.985Z,4.37
2018-12-09T09:53:05.842Z,4.28
2018-12-09T09:55:33.677Z,4.12
2018-12-09T09:58:01.444Z,4.55
2018-12-09T10:00:29.715Z,4.92
2018-12-09T10:02:58.048Z,5.35
2018-12-09T10:05:25.876Z,4.40
2018-12-09T10:07:54.759Z,4.28
2018-12-09T10:10:22.471Z,4.55
2018-12-09T10:12:50.362Z,4.12
2018-12-09T10:15:18.296Z,5.17
2018-12-09T10:17:46.025Z,3.65
2018-12-09T10:20:13.882Z,3.87
2018-12-09T10:22:41.708Z,4.80
2018-12-09T10:25:09.586Z,4.35
2018-12-09T10:27:37.267Z,4.05
2018-12-09T10:30:07.577Z,4.90
2018-12-09T10:32:36.101Z,4.40
2018-12-09T10:35:04.475Z,4.87
2018-12-09T10:37:32.292Z,6.20
2018-12-09T10:40:00.102Z,4.00
2018-12-09T10:42:27.869Z,4.97
2018-12-09T10:44:56.511Z,3.40
2018-12-09T10:47:24.306Z,3.45
2018-12-09T10:49:52.795Z,3.40
2018-12-09T10:52:20.617Z,3.50
2018-12-09T10:54:48.442Z,4.10
2018-12-09T10:57:16.240Z,3.62
2018-12-09T10:59:44.155Z,3.70
2018-12-09T11:02:19.091Z,3.35
2018-12-09T11:04:48.235Z,4.75
2018-12-09T11:07:16.042Z,5.92
2018-12-09T11:09:43.848Z,3.90
2018-12-09T11:12:11.627Z,3.98
2018-12-09T11:14:39.534Z,4.17
2018-12-09T11:17:07.391Z,3.92
2018-12-09T11:19:35.720Z,4.00
2018-12-09T11:22:03.539Z,5.67
2018-12-09T11:24:31.281Z,3.95
2018-12-09T11:26:59.029Z,4.80
2018-12-09T11:29:27.888Z,3.15
2018-12-09T11:31:55.679Z,4.70
2018-12-09T11:34:23.506Z,4.10
2018-12-09T11:36:51.441Z,3.92
2018-12-09T11:39:19.215Z,4.15
2018-12-09T11:41:47.041Z,5.30
2018-12-09T11:44:14.814Z,3.85
2018-12-09T11:46:42.664Z,5.08
2018-12-09T11:49:10.432Z,4.83
2018-12-09T11:51:38.237Z,5.40
2018-12-09T11:54:07.019Z,4.33
2018-12-09T11:56:34.798Z,5.55
2018-12-09T11:59:03.524Z,4.20
2018-12-09T12:01:31.370Z,4.28
2018-12-09T12:03:59.151Z,4.25
2018-12-09T12:06:26.988Z,4.95
2018-12-09T12:08:54.959Z,5.10
2018-12-09T12:11:22.838Z,4.80
2018-12-09T12:13:50.740Z,4.65
2018-12-09T12:16:18.622Z,3.87
2018-12-09T12:18:47.431Z,3.50
2018-12-09T12:21:15.295Z,4.50
2018-12-09T12:23:45.222Z,3.58
2018-12-09T12:26:13.942Z,3.50
2018-12-09T12:28:41.833Z,4.62
2018-12-09T12:31:09.566Z,4.42
2018-12-09T12:33:37.371Z,3.55
2018-12-09T12:36:12.689Z,3.52
2018-12-09T12:38:40.575Z,3.72
2018-12-09T12:41:08.381Z,3.85
2018-12-09T12:43:36.315Z,3.20
2018-12-09T12:46:04.158Z,2.62
2018-12-09T12:48:32.095Z,4.30
2018-12-09T12:50:59.863Z,2.60
2018-12-09T12:53:28.608Z,2.67
2018-12-09T12:55:59.945Z,2.95
2018-12-09T12:58:27.784Z,3.80
2018-12-09T13:00:55.610Z,4.58
2018-12-09T13:03:23.716Z,2.30
2018-12-09T13:05:51.563Z,3.30
2018-12-09T13:08:19.704Z,2.72
2018-12-09T13:10:48.085Z,4.03
2018-12-09T13:13:15.959Z,2.20
2018-12-09T13:15:43.745Z,3.30
2018-12-09T13:18:12.026Z,3.00
2018-12-09T13:20:39.726Z,1.95
2018-12-09T13:23:07.566Z,2.45
2018-12-09T13:25:36.343Z,2.52
2018-12-09T13:28:04.157Z,2.92
2018-12-09T13:30:31.972Z,2.60
2018-12-09T13:32:59.796Z,2.05
2018-12-09T13:35:27.556Z,2.60
2018-12-09T13:37:55.391Z,2.55
2018-12-09T13:40:23.963Z,3.05
2018-12-09T13:42:51.799Z,2.67
2018-12-09T13:45:19.598Z,2.70
2018-12-09T13:47:47.384Z,3.10
2018-12-09T13:50:15.529Z,2.20
2018-12-09T13:52:44.489Z,3.60
2018-12-09T13:55:12.436Z,3.00
2018-12-09T13:57:41.516Z,2.45
2018-12-09T14:00:10.224Z,2.58
2018-12-09T14:02:38.952Z,2.15
2018-12-09T14:05:06.859Z,4.67
2018-12-09T14:07:36.674Z,2.50
2018-12-09T14:10:05.829Z,3.00
2018-12-09T14:12:33.573Z,2.75
2018-12-09T14:15:01.460Z,2.52
2018-12-09T14:17:29.273Z,3.00
2018-12-09T14:19:58.333Z,2.17
2018-12-09T14:22:26.215Z,3.33
2018-12-09T14:24:53.950Z,2.55
2018-12-09T14:27:23.390Z,2.92
2018-12-09T14:29:51.246Z,2.92
2018-12-09T14:32:19.190Z,2.98
2018-12-09T14:34:46.967Z,3.12
2018-12-09T14:37:14.741Z,3.42
2018-12-09T14:39:42.557Z,3.62
2018-12-09T14:42:10.344Z,2.98
2018-12-09T14:44:38.877Z,2.72
2018-12-09T14:47:06.860Z,3.27
2018-12-09T14:49:34.664Z,3.02
2018-12-09T14:52:02.577Z,3.65
2018-12-09T14:54:30.371Z,3.72
2018-12-09T14:56:58.735Z,3.30
2018-12-09T14:59:26.740Z,3.65
2018-12-09T15:01:54.494Z,3.22
2018-12-09T15:04:22.311Z,2.52
2018-12-09T15:06:50.992Z,3.30
2018-12-09T15:09:18.766Z,3.25
2018-12-09T15:11:46.523Z,3.50
2018-12-09T15:14:14.318Z,3.02
2018-12-09T15:16:42.850Z,3.83
2018-12-09T15:19:10.585Z,2.52
2018-12-09T15:21:38.469Z,2.80
2018-12-09T15:24:06.181Z,2.33
2018-12-09T15:26:34.053Z,2.75
2018-12-09T15:29:01.992Z,3.25
2018-12-09T15:31:29.754Z,2.60
2018-12-09T15:33:57.519Z,3.25
2018-12-09T15:36:25.290Z,3.40
2018-12-09T15:38:53.956Z,4.03
2018-12-09T15:41:21.649Z,3.42
2018-12-09T15:43:49.458Z,3.85
2018-12-09T15:46:17.252Z,3.17
2018-12-09T15:48:45.086Z,3.35
2018-12-09T15:51:14.002Z,3.70
2018-12-09T15:53:42.863Z,2.80
2018-12-09T15:56:10.729Z,2.40
2018-12-09T15:58:38.421Z,2.80
2018-12-09T16:01:06.251Z,2.70
2018-12-09T16:03:34.059Z,2.58
2018-12-09T16:06:01.791Z,3.20
2018-12-09T16:08:29.585Z,3.05
2018-12-09T16:10:57.383Z,2.40
2018-12-09T16:13:25.150Z,2.75
2018-12-09T16:15:53.963Z,2.47
2018-12-09T16:18:22.639Z,2.40
2018-12-09T16:20:51.502Z,2.35
2018-12-09T16:23:19.331Z,2.20
2018-12-09T16:25:47.165Z,2.65
2018-12-09T16:28:15.034Z,2.30
2018-12-09T16:30:43.013Z,3.00
2018-12-09T16:33:10.781Z,2.85
2018-12-09T16:35:38.662Z,2.25
2018-12-09T16:38:06.803Z,2.50
2018-12-09T16:40:34.611Z,2.20
2018-12-09T16:43:02.462Z,2.27
2018-12-09T16:45:30.336Z,2.37
2018-12-09T16:47:58.151Z,3.00
2018-12-09T16:50:26.313Z,2.90
2018-12-09T16:52:54.177Z,3.10
2018-12-09T16:55:21.998Z,2.50
2018-12-09T16:57:49.781Z,2.22
2018-12-09T17:00:17.502Z,2.98
2018-12-09T17:02:45.335Z,2.58
2018-12-09T17:05:13.181Z,2.98
2018-12-09T17:07:42.260Z,3.37
2018-12-09T17:10:10.382Z,2.92
2018-12-09T17:12:38.179Z,3.92
2018-12-09T17:15:06.775Z,3.37
2018-12-09T17:17:34.663Z,3.85
2018-12-09T17:20:06.397Z,3.00
2018-12-09T17:22:33.419Z,2.83
2018-12-09T17:25:01.238Z,2.90
2018-12-09T17:27:29.058Z,3.70
2018-12-09T17:29:56.750Z,2.85
2018-12-09T17:32:24.525Z,2.52
2018-12-09T17:34:53.311Z,2.45
2018-12-09T17:37:21.135Z,2.45
2018-12-09T17:39:48.825Z,2.50
2018-12-09T17:42:16.625Z,2.52
2018-12-09T17:44:44.396Z,2.27
2018-12-09T17:47:12.255Z,2.35
2018-12-09T17:49:40.871Z,2.50
2018-12-09T17:52:08.779Z,2.80
2018-12-09T17:54:38.182Z,2.50
2018-12-09T17:57:05.984Z,3.20
2018-12-09T17:59:33.742Z,2.35
2018-12-09T18:02:01.512Z,2.55
2018-12-09T18:04:29.399Z,3.20
2018-12-09T18:06:57.275Z,2.47
2018-12-09T18:09:25.091Z,2.50
2018-12-09T18:11:52.947Z,3.02
2018-12-09T18:14:20.792Z,3.10
2018-12-09T18:16:48.891Z,2.92
2018-12-09T18:19:16.662Z,3.10
2018-12-09T18:21:44.415Z,3.83
2018-12-09T18:24:12.300Z,2.33
2018-12-09T18:26:40.022Z,2.52
2018-12-09T18:29:07.799Z,3.00
2018-12-09T18:31:35.710Z,2.98
2018-12-09T18:34:03.394Z,2.50
2018-12-09T18:36:31.281Z,2.80
2018-12-09T18:38:59.174Z,3.22
2018-12-09T18:41:28.189Z,1.82
2018-12-09T18:43:56.037Z,2.33
2018-12-09T18:46:23.792Z,1.80
2018-12-09T18:48:52.115Z,2.10
2018-12-09T18:51:19.987Z,2.20
2018-12-09T18:53:47.862Z,2.72
2018-12-09T18:56:17.351Z,2.47
2018-12-09T18:58:46.137Z,2.75
2018-12-09T19:01:13.916Z,2.58
2018-12-09T19:03:41.736Z,2.70
2018-12-09T19:06:09.550Z,2.15
2018-12-09T19:08:37.455Z,2.27
2018-12-09T19:11:05.235Z,2.60
2018-12-09T19:13:32.985Z,2.50
2018-12-09T19:16:01.749Z,3.02
2018-12-09T19:18:29.531Z,3.08
2018-12-09T19:20:58.159Z,2.25
2018-12-09T19:23:25.939Z,2.60
2018-12-09T19:25:53.774Z,2.80
2018-12-09T19:28:21.507Z,3.15
2018-12-09T19:30:49.267Z,3.42
2018-12-09T19:33:17.149Z,3.50
2018-12-09T19:35:44.958Z,3.67
2018-12-09T19:38:12.751Z,3.58
2018-12-09T19:40:41.538Z,3.30
2018-12-09T19:43:09.378Z,3.00
2018-12-09T19:45:37.131Z,3.42
2018-12-09T19:48:04.897Z,3.50
2018-12-09T19:50:32.626Z,3.40
2018-12-09T19:53:01.111Z,3.00
2018-12-09T19:55:28.877Z,2.80
2018-12-09T19:57:56.607Z,4.62
2018-12-09T20:00:24.854Z,3.75
2018-12-09T20:02:52.593Z,2.45
2018-12-09T20:05:20.643Z,2.50
2018-12-09T20:07:48.531Z,2.77
2018-12-09T20:10:16.239Z,2.47
2018-12-09T20:12:44.095Z,2.47
2018-12-09T20:15:11.936Z,2.55
2018-12-09T20:17:39.676Z,3.27
2018-12-09T20:20:08.447Z,2.60
2018-12-09T20:22:36.317Z,2.60
2018-12-09T20:25:05.398Z,2.40
2018-12-09T20:27:33.870Z,2.08
2018-12-09T20:30:01.666Z,2.58
2018-12-09T20:32:35.137Z,2.80
2018-12-09T20:35:00.397Z,3.15
2018-12-09T20:37:28.238Z,2.98
2018-12-09T20:39:56.038Z,2.40
2018-12-09T20:42:23.842Z,2.40
2018-12-09T20:44:51.636Z,3.05
2018-12-09T20:47:20.027Z,2.33
2018-12-09T20:49:47.856Z,2.47
2018-12-09T20:52:15.668Z,2.87
2018-12-09T20:54:44.057Z,2.85
2018-12-09T20:57:11.874Z,2.87
2018-12-09T20:59:39.625Z,3.20
2018-12-09T21:02:07.359Z,3.22
2018-12-09T21:04:35.268Z,3.20
2018-12-09T21:07:03.069Z,2.77
2018-12-09T21:09:30.754Z,2.98
2018-12-09T21:11:58.705Z,3.17
2018-12-09T21:14:26.580Z,2.87
2018-12-09T21:16:54.518Z,3.10
2018-12-09T21:19:23.068Z,3.40
2018-12-09T21:21:50.993Z,3.20
2018-12-09T21:24:25.827Z,2.87
2018-12-09T21:26:49.408Z,3.00
2018-12-09T21:29:17.265Z,3.60
2018-12-09T21:31:45.164Z,2.90
2018-12-09T21:34:12.934Z,2.33
2018-12-09T21:36:40.816Z,2.95
2018-12-09T21:39:08.627Z,3.00
2018-12-09T21:41:36.372Z,2.75
2018-12-09T21:44:04.172Z,3.45
2018-12-09T21:46:32.003Z,2.90
2018-12-09T21:48:59.759Z,2.92
2018-12-09T21:51:27.618Z,3.22
2018-12-09T21:53:55.422Z,2.83
2018-12-09T21:56:23.210Z,3.45
2018-12-09T21:58:50.972Z,3.70
2018-12-09T22:01:18.781Z,2.62
2018-12-09T22:03:46.547Z,2.80
2018-12-09T22:06:14.311Z,2.90
2018-12-09T22:08:42.245Z,2.77
2018-12-09T22:11:10.065Z,2.58
2018-12-09T22:13:38.060Z,2.60
2018-12-09T22:16:07.074Z,3.02
2018-12-09T22:18:34.897Z,2.60
2018-12-09T22:21:03.569Z,2.90
2018-12-09T22:23:31.438Z,3.10
2018-12-09T22:25:59.347Z,3.35
2018-12-09T22:28:27.318Z,3.30
2018-12-09T22:30:55.051Z,3.33
2018-12-09T22:33:22.837Z,2.95
2018-12-09T22:35:50.559Z,3.20
2018-12-09T22:38:19.547Z,2.85
2018-12-09T22:40:48.222Z,3.20
2018-12-09T22:43:16.962Z,2.42
2018-12-09T22:45:44.714Z,2.98
2018-12-09T22:48:12.559Z,3.10
2018-12-09T22:50:41.233Z,2.80
2018-12-09T22:53:09.053Z,3.25
2018-12-09T22:55:36.853Z,2.37
2018-12-09T22:58:04.573Z,2.42
2018-12-09T23:00:32.560Z,3.58
2018-12-09T23:03:03.470Z,2.65
2018-12-09T23:05:31.258Z,3.40
2018-12-09T23:07:59.063Z,2.98
2018-12-09T23:10:26.921Z,3.30
2018-12-09T23:12:55.300Z,2.58
2018-12-09T23:15:24.010Z,2.45
2018-12-09T23:17:51.712Z,3.15
2018-12-09T23:20:19.474Z,3.22
2018-12-09T23:22:47.239Z,2.40
2018-12-09T23:25:15.008Z,2.40
2018-12-09T23:27:43.020Z,2.25
2018-12-09T23:30:10.799Z,2.47
2018-12-09T23:32:38.663Z,2.50
2018-12-09T23:35:06.439Z,2.10
2018-12-09T23:37:34.313Z,3.20
2018-12-09T23:40:02.205Z,3.00
2018-12-09T23:42:29.946Z,2.30
2018-12-09T23:44:57.766Z,4.15
2018-12-09T23:47:25.486Z,2.65
2018-12-09T23:49:53.271Z,2.15
2018-12-09T23:52:21.639Z,2.62
2018-12-09T23:54:49.573Z,2.15
2018-12-09T23:57:17.361Z,1.90
2018-12-09T23:59:45.092Z,2.25
